Station Historical Data
Daily Summary for June 21, 2017 Units:  English    Metric   Both
« Previous Day
Next Day »
Daily Weekly Monthly Yearly Custom
  High: Low: Average:
Temperature: 78.4 °F 69.0 °F 72.8 °F
Dew Point: 72.3 °F 66.5 °F 69.6 °F
Humidity: 95% 78% 90%
Wind Speed: 0.0mph 0.0mph 0mph
Wind Gust: 2.0mph - -
Wind- -
Pressure: 30.11 in 30.06 in -
Precipitation: 0.25 in    
Historical Graphs
 
 
Tabular Data for June 21, 2017
Time Temperature Dew Point Pressure Wind Wind Speed Wind Gust Humidity Rainfall Rate (Hourly) Conditions
00:00 69.3 °F 67.2 °F 30.09 in Calm     93% 0.00 in RA
00:10 70.5 °F 69.0 °F 30.09 in Calm     95% 0.00 in CLR
00:20 70.5 °F 69.0 °F 30.08 in Calm     95% 0.00 in CLR
00:30 70.5 °F 69.0 °F 30.09 in Calm     95% 0.00 in CLR
00:40 70.5 °F 69.0 °F 30.09 in Calm     95% 0.00 in CLR
00:50 70.5 °F 69.0 °F 30.08 in Calm     95% 0.00 in CLR
01:00 70.5 °F 69.0 °F 30.08 in Calm     95% 0.00 in CLR
01:10 70.5 °F 69.0 °F 30.08 in Calm     95% 0.00 in CLR
01:20 70.5 °F 69.0 °F 30.08 in Calm     95% 0.00 in CLR
01:30 70.5 °F 69.0 °F 30.08 in Calm     95% 0.00 in CLR
01:40 70.5 °F 69.0 °F 30.08 in Calm     95% 0.00 in CLR
01:50 70.5 °F 69.0 °F 30.07 in Calm     95% 0.00 in CLR
02:00 70.5 °F 69.0 °F 30.07 in Calm     95% 0.00 in CLR
02:10 70.5 °F 69.0 °F 30.07 in Calm     95% 0.00 in CLR
02:20 70.5 °F 69.0 °F 30.07 in Calm     95% 0.00 in CLR
02:30 70.5 °F 69.0 °F 30.07 in Calm     95% 0.00 in CLR
02:40 70.5 °F 69.0 °F 30.07 in Calm     95% 0.00 in CLR
02:50 70.5 °F 69.0 °F 30.07 in Calm     95% 0.00 in CLR
03:00 70.5 °F 69.0 °F 30.06 in Calm     95% 0.00 in CLR
03:10 70.5 °F 69.0 °F 30.06 in Calm     95% 0.00 in CLR
03:20 70.5 °F 69.0 °F 30.06 in Calm     95% 0.00 in CLR
03:30 70.5 °F 69.0 °F 30.06 in Calm     95% 0.00 in CLR
03:40 70.5 °F 69.0 °F 30.06 in Calm     95% 0.00 in CLR
03:50 70.5 °F 69.0 °F 30.06 in Calm     95% 0.00 in CLR
04:00 70.5 °F 69.0 °F 30.06 in Calm     95% 0.00 in CLR
04:10 70.5 °F 69.0 °F 30.06 in Calm     95% 0.00 in CLR
04:20 70.5 °F 69.0 °F 30.06 in Calm     95% 0.00 in CLR
04:40 70.5 °F 69.0 °F 30.06 in Calm     95% 0.00 in CLR
05:00 70.5 °F 69.0 °F 30.06 in Calm     95% 0.00 in CLR
05:10 70.5 °F 69.0 °F 30.06 in Calm     95% 0.00 in CLR
05:20 70.5 °F 69.0 °F 30.07 in Calm     95% 0.00 in CLR
05:30 70.5 °F 69.0 °F 30.07 in Calm     95% 0.00 in CLR
05:40 70.5 °F 69.0 °F 30.08 in Calm     95% 0.00 in CLR
05:50 70.5 °F 69.0 °F 30.08 in Calm     95% 0.00 in CLR
06:00 70.5 °F 69.0 °F 30.08 in Calm     95% 0.00 in CLR
06:10 70.5 °F 69.0 °F 30.08 in Calm     95% 0.00 in CLR
06:20 70.5 °F 69.0 °F 30.08 in Calm     95% 0.00 in CLR
06:30 70.5 °F 69.0 °F 30.08 in Calm     95% 0.00 in CLR
06:40 70.5 °F 69.0 °F 30.08 in Calm     95% 0.00 in CLR
06:50 70.5 °F 69.0 °F 30.08 in Calm     95% 0.00 in CLR
07:00 70.5 °F 69.0 °F 30.08 in Calm     95% 0.00 in CLR
07:10 70.5 °F 69.0 °F 30.09 in Calm     95% 0.00 in CLR
07:20 70.5 °F 69.0 °F 30.09 in Calm     95% 0.00 in CLR
07:30 70.5 °F 69.0 °F 30.09 in Calm     95% 0.00 in CLR
07:40 70.5 °F 69.0 °F 30.09 in Calm     95% 0.00 in CLR
07:50 70.5 °F 69.0 °F 30.08 in Calm     95% 0.00 in CLR
08:00 70.5 °F 69.0 °F 30.08 in Calm     95% 0.00 in CLR
08:10 70.5 °F 69.0 °F 30.09 in Calm     95% 0.00 in CLR
08:20 70.5 °F 69.0 °F 30.09 in Calm     95% 0.00 in CLR
08:30 70.5 °F 69.0 °F 30.09 in Calm     95% 0.00 in CLR
08:40 70.2 °F 68.4 °F 30.09 in Calm     94% 0.00 in CLR
08:50 70.3 °F 68.2 °F 30.09 in Calm     93% 0.00 in CLR
09:00 70.6 °F 68.5 °F 30.09 in Calm     93% 0.00 in CLR
09:10 70.7 °F 68.6 °F 30.09 in Calm     93% 0.00 in CLR
09:20 71.0 °F 68.9 °F 30.10 in Calm     93% 0.00 in CLR
09:30 71.4 °F 69.0 °F 30.09 in Calm     92% 0.00 in CLR
09:40 71.4 °F 68.7 °F 30.09 in Calm   1.0 mph 91% 0.00 in BKN
09:50 71.9 °F 69.1 °F 30.09 in Calm   1.0 mph 91% 0.00 in BKN
10:20 73.1 °F 70.0 °F 30.09 in Calm     90% 0.00 in BKN
10:30 73.5 °F 69.7 °F 30.09 in Calm   1.0 mph 88% 0.00 in OVC
10:40 73.6 °F 69.8 °F 30.10 in Calm   1.0 mph 88% 0.00 in OVC
10:50 73.9 °F 69.8 °F 30.10 in Calm   1.0 mph 87% 0.00 in OVC
11:00 74.2 °F 69.7 °F 30.10 in Calm   1.0 mph 86% 0.00 in OVC
11:10 74.4 °F 70.3 °F 30.10 in Calm   1.0 mph 87% 0.00 in OVC
11:20 75.1 °F 70.9 °F 30.10 in Calm     87% 0.00 in OVC
11:30 75.6 °F 70.7 °F 30.10 in Calm   1.0 mph 85% 0.00 in OVC
11:40 75.7 °F 70.8 °F 30.10 in Calm   1.0 mph 85% 0.00 in OVC
11:50 75.8 °F 71.0 °F 30.10 in Calm   1.0 mph 85% 0.00 in OVC
12:00 75.9 °F 70.7 °F 30.11 in Calm   1.0 mph 84% 0.00 in OVC
12:10 76.3 °F 70.8 °F 30.11 in Calm   1.0 mph 83% 0.00 in OVC
12:30 77.9 °F 72.3 °F 30.11 in Calm   1.0 mph 83% 0.00 in OVC
12:40 78.2 °F 71.2 °F 30.11 in Calm     79% 0.00 in OVC
12:50 77.8 °F 70.4 °F 30.11 in Calm   1.0 mph 78% 0.00 in OVC
13:00 77.7 °F 71.0 °F 30.11 in Calm   2.0 mph 80% 0.00 in OVC
13:10 77.7 °F 71.0 °F 30.11 in Calm   1.0 mph 80% 0.00 in OVC
13:20 77.4 °F 70.7 °F 30.11 in Calm   1.0 mph 80% 0.00 in OVC
13:30 76.9 °F 70.6 °F 30.11 in Calm   1.0 mph 81% 0.00 in OVC
13:40 76.6 °F 70.7 °F 30.11 in Calm     82% 0.00 in OVC
13:50 76.7 °F 71.1 °F 30.11 in Calm     83% 0.00 in OVC
14:00 77.0 °F 71.4 °F 30.10 in Calm     83% 0.00 in OVC
14:10 77.1 °F 71.2 °F 30.10 in Calm     82% 0.00 in OVC
14:20 77.1 °F 71.2 °F 30.10 in Calm     82% 0.00 in OVC
14:30 77.4 °F 71.5 °F 30.09 in Calm     82% 0.00 in OVC
14:40 77.2 °F 70.9 °F 30.09 in Calm     81% 0.00 in OVC
14:50 77.2 °F 71.3 °F 30.09 in Calm     82% 0.00 in OVC
15:00 77.2 °F 71.6 °F 30.09 in Calm     83% 0.00 in OVC
15:10 77.2 °F 71.2 °F 30.09 in Calm     82% 0.00 in OVC
15:20 77.5 °F 71.9 °F 30.09 in Calm   1.0 mph 83% 0.00 in OVC
15:30 77.8 °F 71.9 °F 30.08 in Calm     82% 0.00 in OVC
15:40 77.9 °F 71.2 °F 30.09 in Calm     80% 0.00 in OVC
15:50 78.1 °F 70.7 °F 30.08 in Calm   1.0 mph 78% 0.00 in OVC
16:00 78.3 °F 71.6 °F 30.08 in Calm     80% 0.00 in OVC
16:10 78.4 °F 71.7 °F 30.08 in Calm     80% 0.00 in OVC
16:20 78.0 °F 71.0 °F 30.08 in Calm     79% 0.00 in OVC
16:30 77.2 °F 70.9 °F 30.08 in Calm     81% 0.00 in OVC
16:40 76.7 °F 71.1 °F 30.08 in Calm     83% 0.00 in OVC
16:50 76.3 °F 71.4 °F 30.08 in Calm     85% 0.00 in OVC
17:00 76.0 °F 71.2 °F 30.07 in Calm     85% 0.00 in OVC
17:10 76.1 °F 71.6 °F 30.07 in Calm     86% 0.00 in OVC
17:20 76.1 °F 71.3 °F 30.07 in Calm     85% 0.00 in OVC
17:30 76.4 °F 71.9 °F 30.07 in Calm     86% 0.00 in OVC
17:40 76.4 °F 71.2 °F 30.07 in Calm     84% 0.00 in OVC
17:50 76.5 °F 71.7 °F 30.07 in Calm     85% 0.00 in OVC
18:00 76.6 °F 71.7 °F 30.07 in Calm     85% 0.00 in OVC
18:10 76.7 °F 72.2 °F 30.07 in Calm     86% 0.00 in OVC
18:20 76.6 °F 72.1 °F 30.07 in Calm     86% 0.00 in OVC
18:30 76.5 °F 72.0 °F 30.07 in Calm     86% 0.00 in OVC
18:40 76.5 °F 72.0 °F 30.07 in Calm     86% 0.00 in OVC
18:50 76.3 °F 71.8 °F 30.07 in Calm     86% 0.00 in OVC
19:00 76.3 °F 72.1 °F 30.07 in Calm     87% 0.00 in OVC
19:10 76.1 °F 71.9 °F 30.07 in Calm     87% 0.00 in OVC
19:20 76.0 °F 71.8 °F 30.07 in Calm     87% 0.00 in OVC
19:30 75.7 °F 71.6 °F 30.08 in Calm     87% 0.00 in OVC
19:40 74.3 °F 69.2 °F 30.08 in Calm   2.0 mph 84% 0.00 in OVC
19:50 72.0 °F 67.9 °F 30.09 in Calm   2.0 mph 87% 0.04 in RA
20:00 70.3 °F 66.6 °F 30.09 in Calm     88% 0.04 in -RA
20:10 69.6 °F 66.5 °F 30.09 in Calm     90% 0.03 in -RA
20:20 69.2 °F 66.5 °F 30.09 in Calm     91% 0.03 in RA
20:30 69.2 °F 66.8 °F 30.09 in Calm     92% 0.02 in -RA
20:40 69.1 °F 66.7 °F 30.09 in Calm     92% 0.02 in -RA
20:50 69.0 °F 66.6 °F 30.09 in Calm     92% 0.02 in -DZ
21:10 69.0 °F 66.6 °F 30.09 in Calm     92% 0.01 in -DZ
21:21 69.0 °F 66.6 °F 30.09 in Calm     92% 0.00 in OVC
21:30 69.1 °F 67.0 °F 30.09 in Calm     93% 0.00 in OVC
21:40 69.0 °F 66.9 °F 30.09 in Calm     93% 0.00 in OVC
21:50 69.0 °F 66.9 °F 30.09 in Calm     93% 0.00 in OVC
22:00 69.1 °F 67.0 °F 30.10 in Calm     93% 0.00 in OVC
22:10 69.2 °F 67.1 °F 30.10 in Calm     93% 0.01 in RA
22:20 69.2 °F 67.1 °F 30.10 in Calm     93% 0.00 in OVC
22:30 69.3 °F 67.2 °F 30.10 in Calm     93% 0.00 in OVC
22:40 69.3 °F 67.5 °F 30.10 in Calm     94% 0.00 in OVC
22:50 69.9 °F 68.4 °F 30.10 in Calm     95% 0.00 in -DZ
23:00 69.9 °F 68.4 °F 30.11 in Calm     95% 0.00 in -DZ
23:20 69.9 °F 68.4 °F 30.11 in Calm     95% 0.00 in OVC
23:30 69.9 °F 68.4 °F 30.11 in Calm     95% 0.00 in CLR
23:40 69.9 °F 68.4 °F 30.11 in Calm     95% 0.00 in CLR
23:51 69.9 °F 68.4 °F 30.11 in Calm     95% 0.00 in CLR
Piedmont Bend
Compliments of Weather Underground - 4 mb